createdAt,value
2017-11-07T00:00:53.899Z,2.7
2017-11-07T00:01:55.950Z,2.7
2017-11-07T00:02:57.886Z,2.8
2017-11-07T00:03:59.790Z,2.9
2017-11-07T00:05:01.946Z,3
2017-11-07T00:06:03.877Z,3
2017-11-07T00:07:05.743Z,3
2017-11-07T00:08:07.723Z,3.1
2017-11-07T00:09:09.589Z,3.2
2017-11-07T00:10:11.418Z,3.3
2017-11-07T00:11:13.260Z,3.2
2017-11-07T00:12:15.315Z,3.3
2017-11-07T00:13:17.263Z,3.2
2017-11-07T00:14:19.177Z,3.1
2017-11-07T00:15:21.130Z,2.9
2017-11-07T00:16:23.033Z,3
2017-11-07T00:17:24.923Z,2.9
2017-11-07T00:18:27.069Z,2.8
2017-11-07T00:19:29.001Z,2.8
2017-11-07T00:20:30.934Z,2.9
2017-11-07T00:21:32.866Z,3
2017-11-07T00:22:34.838Z,2.9
2017-11-07T00:23:36.719Z,3
2017-11-07T00:24:42.481Z,2.8
2017-11-07T00:25:44.460Z,2.8
2017-11-07T00:26:46.592Z,2.8
2017-11-07T00:27:50.175Z,2.7
2017-11-07T00:28:53.379Z,2.7
2017-11-07T00:29:56.483Z,2.7
2017-11-07T00:31:00.796Z,2.8
2017-11-07T00:32:03.640Z,3.1
2017-11-07T00:33:06.385Z,2.9
2017-11-07T00:34:08.255Z,3
2017-11-07T00:35:10.131Z,3
2017-11-07T00:36:12.062Z,2.8
2017-11-07T00:37:13.981Z,2.7
2017-11-07T00:38:15.953Z,2.4
2017-11-07T00:39:17.894Z,2.5
2017-11-07T00:40:19.832Z,2.6
2017-11-07T00:41:21.682Z,2.5
2017-11-07T00:42:23.589Z,2.6
2017-11-07T00:43:25.472Z,2.6
2017-11-07T00:44:27.294Z,2.6
2017-11-07T00:45:29.168Z,2.7
2017-11-07T00:46:31.044Z,2.7
2017-11-07T00:47:33.311Z,2.7
2017-11-07T00:48:36.138Z,2.8
2017-11-07T00:49:39.648Z,2.9
2017-11-07T00:50:42.695Z,3
2017-11-07T00:51:45.491Z,3
2017-11-07T00:52:48.675Z,3
2017-11-07T00:53:51.453Z,3
2017-11-07T00:54:54.843Z,2.9
2017-11-07T00:55:57.534Z,2.9
2017-11-07T00:57:02.913Z,2.9
2017-11-07T00:58:04.824Z,2.6
2017-11-07T00:59:06.720Z,2.4
2017-11-07T01:00:08.634Z,2.3
2017-11-07T01:01:10.455Z,2.4
2017-11-07T01:02:12.423Z,2.5
2017-11-07T01:03:14.323Z,2.6
2017-11-07T01:04:16.272Z,2.5
2017-11-07T01:05:18.290Z,2.5
2017-11-07T01:06:20.221Z,2.7
2017-11-07T01:07:22.113Z,2.7
2017-11-07T01:08:23.972Z,2.8
2017-11-07T01:09:25.842Z,2.8
2017-11-07T01:10:27.755Z,2.9
2017-11-07T01:11:29.642Z,3.3
2017-11-07T01:12:31.527Z,3.2
2017-11-07T01:13:33.374Z,2.6
2017-11-07T01:14:35.796Z,2.5
2017-11-07T01:15:37.707Z,2.5
2017-11-07T01:16:41.601Z,2.6
2017-11-07T01:17:43.474Z,2.7
2017-11-07T01:18:45.446Z,2.6
2017-11-07T01:19:47.401Z,2.7
2017-11-07T01:20:49.293Z,2.7
2017-11-07T01:21:51.184Z,2.7
2017-11-07T01:22:53.176Z,2.7
2017-11-07T01:23:55.089Z,2.6
2017-11-07T01:24:57.115Z,2.7
2017-11-07T01:25:59.037Z,2.6
2017-11-07T01:27:00.915Z,2.7
2017-11-07T01:28:02.840Z,2.7
2017-11-07T01:29:04.735Z,2.9
2017-11-07T01:30:06.619Z,2.9
2017-11-07T01:31:08.535Z,2.8
2017-11-07T01:32:10.398Z,3
2017-11-07T01:33:12.440Z,3.2
2017-11-07T01:34:14.361Z,3.2
2017-11-07T01:35:16.281Z,3.1
2017-11-07T01:36:18.187Z,3.1
2017-11-07T01:37:20.069Z,3.2
2017-11-07T01:38:21.925Z,3.1
2017-11-07T01:39:24.067Z,3.3
2017-11-07T01:40:26.073Z,3.2
2017-11-07T01:41:27.917Z,3.2
2017-11-07T01:42:29.894Z,3.1
2017-11-07T01:43:31.820Z,3.1
2017-11-07T01:44:33.755Z,3.2
2017-11-07T01:45:35.882Z,3.1
2017-11-07T01:46:37.759Z,3.2
2017-11-07T01:47:41.883Z,3.2
2017-11-07T01:48:43.815Z,3.1
2017-11-07T01:49:45.729Z,3
2017-11-07T01:50:47.636Z,3.1
2017-11-07T01:51:49.551Z,3.1
2017-11-07T01:52:51.563Z,3.4
2017-11-07T01:53:53.464Z,3.4
2017-11-07T01:54:55.403Z,3.5
2017-11-07T01:55:57.364Z,3.4
2017-11-07T01:56:59.338Z,3.5
2017-11-07T01:58:01.304Z,3.5
2017-11-07T01:59:03.228Z,3.5
2017-11-07T02:00:06.906Z,3.5
2017-11-07T02:01:09.397Z,3.6
2017-11-07T02:02:11.359Z,3.7
2017-11-07T02:03:13.289Z,3.5
2017-11-07T02:04:15.153Z,3.5
2017-11-07T02:05:17.203Z,3.5
2017-11-07T02:06:19.186Z,3.5
2017-11-07T02:07:21.163Z,3.5
2017-11-07T02:08:23.091Z,3.5
2017-11-07T02:09:25.137Z,3.5
2017-11-07T02:10:27.152Z,3.5
2017-11-07T02:11:29.093Z,3.6
2017-11-07T02:12:31.014Z,3.5
2017-11-07T02:13:32.944Z,3.6
2017-11-07T02:14:34.849Z,3.6
2017-11-07T02:15:36.714Z,3.7
2017-11-07T02:16:42.768Z,3.7
2017-11-07T02:17:44.768Z,3.6
2017-11-07T02:18:46.649Z,3.7
2017-11-07T02:19:48.607Z,3.5
2017-11-07T02:20:50.870Z,3.5
2017-11-07T02:21:54.307Z,3.5
2017-11-07T02:22:57.737Z,3.5
2017-11-07T02:24:00.329Z,3.4
2017-11-07T02:25:03.253Z,3.4
2017-11-07T02:26:05.767Z,3.6
2017-11-07T02:27:07.732Z,3.6
2017-11-07T02:28:09.648Z,3.6
2017-11-07T02:29:11.702Z,3.6
2017-11-07T02:30:13.613Z,3.5
2017-11-07T02:31:15.501Z,3.5
2017-11-07T02:32:17.430Z,3.4
2017-11-07T02:33:19.331Z,3.4
2017-11-07T02:34:21.197Z,3.4
2017-11-07T02:35:23.108Z,3.5
2017-11-07T02:36:25.261Z,3.4
2017-11-07T02:37:27.110Z,3.5
2017-11-07T02:38:29.012Z,3.4
2017-11-07T02:39:30.946Z,3.5
2017-11-07T02:40:33.180Z,3.6
2017-11-07T02:41:35.034Z,3.7
2017-11-07T02:42:36.946Z,3.7
2017-11-07T02:43:39.464Z,3.6
2017-11-07T02:44:41.366Z,3.6
2017-11-07T02:45:43.580Z,3.5
2017-11-07T02:46:45.415Z,3.6
2017-11-07T02:47:47.357Z,3.5
2017-11-07T02:48:49.249Z,3.5
2017-11-07T02:49:51.123Z,3.5
2017-11-07T02:50:53.050Z,3.5
2017-11-07T02:51:54.944Z,3.5
2017-11-07T02:52:56.811Z,3.6
2017-11-07T02:53:58.661Z,3.5
2017-11-07T02:55:00.529Z,3.6
2017-11-07T02:56:02.352Z,3.6
2017-11-07T02:57:04.409Z,3.7
2017-11-07T02:58:06.297Z,3.8
2017-11-07T02:59:08.224Z,3.6
2017-11-07T03:00:10.203Z,3.7
2017-11-07T03:01:12.091Z,3.9
2017-11-07T03:02:13.954Z,3.9
2017-11-07T03:03:15.945Z,3.8
2017-11-07T03:04:17.838Z,3.8
2017-11-07T03:05:19.753Z,3.9
2017-11-07T03:06:21.618Z,4
2017-11-07T03:07:23.536Z,4
2017-11-07T03:08:25.489Z,4.1
2017-11-07T03:09:27.315Z,4
2017-11-07T03:10:29.234Z,4.1
2017-11-07T03:11:31.166Z,4.1
2017-11-07T03:12:33.015Z,4.1
2017-11-07T03:13:34.924Z,4.1
2017-11-07T03:14:36.831Z,4
2017-11-07T03:15:40.376Z,3.8
2017-11-07T03:16:42.253Z,3.7
2017-11-07T03:17:44.210Z,3.8
2017-11-07T03:18:46.158Z,3.8
2017-11-07T03:19:48.120Z,3.8
2017-11-07T03:20:50.128Z,3.8
2017-11-07T03:21:52.046Z,3.8
2017-11-07T03:22:53.910Z,3.9
2017-11-07T03:23:55.850Z,3.9
2017-11-07T03:24:57.730Z,3.9
2017-11-07T03:25:59.659Z,3.8
2017-11-07T03:27:05.844Z,3.8
2017-11-07T03:28:07.804Z,3.8
2017-11-07T03:29:09.788Z,3.8
2017-11-07T03:30:11.661Z,3.8
2017-11-07T03:31:13.575Z,3.8
2017-11-07T03:32:15.478Z,3.8
2017-11-07T03:33:17.375Z,3.7
2017-11-07T03:34:19.300Z,3.6
2017-11-07T03:35:21.302Z,3.5
2017-11-07T03:36:23.267Z,3.7
2017-11-07T03:37:25.128Z,3.8
2017-11-07T03:38:27.082Z,3.5
2017-11-07T03:39:29.008Z,3.4
2017-11-07T03:40:30.880Z,3.4
2017-11-07T03:41:32.799Z,3.3
2017-11-07T03:42:34.701Z,3.3
2017-11-07T03:43:36.570Z,3.3
2017-11-07T03:44:40.601Z,3.3
2017-11-07T03:45:42.438Z,3
2017-11-07T03:46:44.249Z,2.9
2017-11-07T03:47:46.134Z,3.2
2017-11-07T03:48:48.017Z,3.3
2017-11-07T03:49:49.902Z,3.1
2017-11-07T03:50:51.791Z,3.3
2017-11-07T03:51:53.679Z,3.3
2017-11-07T03:52:55.627Z,3.2
2017-11-07T03:53:57.520Z,3.4
2017-11-07T03:54:59.458Z,3.4
2017-11-07T03:56:01.405Z,3.3
2017-11-07T03:57:03.328Z,3.3
2017-11-07T03:58:05.241Z,3.4
2017-11-07T03:59:07.152Z,3.4
2017-11-07T04:00:09.060Z,3.4
2017-11-07T04:01:10.947Z,3.3
2017-11-07T04:02:12.892Z,3.4
2017-11-07T04:03:14.921Z,3.3
2017-11-07T04:04:17.226Z,3.2
2017-11-07T04:05:19.169Z,3.3
2017-11-07T04:06:21.108Z,3.4
2017-11-07T04:07:23.536Z,3.4
2017-11-07T04:08:25.580Z,3.4
2017-11-07T04:09:27.496Z,3.5
2017-11-07T04:10:29.428Z,3.5
2017-11-07T04:11:31.408Z,3.4
2017-11-07T04:12:33.346Z,3.2
2017-11-07T04:13:35.574Z,3.5
2017-11-07T04:14:37.495Z,3.4
2017-11-07T04:15:39.477Z,3.4
2017-11-07T04:16:41.370Z,3.4
2017-11-07T04:17:43.571Z,3.5
2017-11-07T04:18:45.445Z,3.4
2017-11-07T04:19:47.380Z,3.2
2017-11-07T04:20:49.395Z,3.2
2017-11-07T04:21:51.249Z,3.1
2017-11-07T04:22:53.304Z,3.1
2017-11-07T04:23:55.166Z,3.1
2017-11-07T04:24:57.068Z,3.1
2017-11-07T04:25:59.166Z,3.2
2017-11-07T04:27:01.859Z,3.3
2017-11-07T04:28:03.718Z,3.3
2017-11-07T04:29:05.587Z,3.2
2017-11-07T04:30:07.435Z,3.2
2017-11-07T04:31:09.382Z,3.3
2017-11-07T04:32:11.236Z,3.5
2017-11-07T04:33:13.129Z,3.4
2017-11-07T04:34:15.034Z,3.5
2017-11-07T04:35:16.871Z,3.4
2017-11-07T04:36:18.804Z,3.4
2017-11-07T04:37:20.726Z,3.6
2017-11-07T04:38:22.601Z,3.5
2017-11-07T04:39:24.498Z,3.4
2017-11-07T04:40:26.394Z,3.5
2017-11-07T04:41:28.389Z,3.4
2017-11-07T04:42:30.337Z,3.4
2017-11-07T04:43:32.182Z,3.6
2017-11-07T04:44:34.120Z,3.4
2017-11-07T04:45:36.520Z,3.4
2017-11-07T04:46:40.456Z,3.6
2017-11-07T04:47:42.345Z,3.3
2017-11-07T04:48:44.230Z,3.4
2017-11-07T04:49:46.091Z,3.4
2017-11-07T04:50:47.948Z,3.4
2017-11-07T04:51:49.924Z,3.5
2017-11-07T04:52:51.835Z,3.4
2017-11-07T04:53:54.098Z,3.3
2017-11-07T04:54:55.997Z,3.4
2017-11-07T04:55:57.878Z,3.3
2017-11-07T04:56:59.825Z,3.3
2017-11-07T04:58:01.693Z,3.4
2017-11-07T04:59:03.600Z,3.5
2017-11-07T05:00:05.526Z,3.5
2017-11-07T05:01:07.483Z,3.4
2017-11-07T05:02:09.454Z,3.4
2017-11-07T05:03:11.326Z,3.4
2017-11-07T05:04:13.238Z,3.4
2017-11-07T05:05:15.103Z,3.4
2017-11-07T05:06:17.024Z,3.2
2017-11-07T05:07:18.957Z,3.3
2017-11-07T05:08:20.930Z,3.3
2017-11-07T05:09:22.879Z,3.3
2017-11-07T05:10:24.791Z,3.4
2017-11-07T05:11:26.708Z,3.4
2017-11-07T05:12:28.649Z,3.4
2017-11-07T05:13:30.750Z,3.4
2017-11-07T05:14:32.859Z,3.3
2017-11-07T05:15:34.750Z,3.5
2017-11-07T05:16:36.681Z,3.5
2017-11-07T05:17:40.595Z,3.4
2017-11-07T05:18:44.901Z,3.4
2017-11-07T05:19:46.822Z,3.4
2017-11-07T05:20:48.731Z,3.4
2017-11-07T05:21:50.630Z,3.5
2017-11-07T05:22:52.574Z,3.5
2017-11-07T05:23:54.528Z,3.4
2017-11-07T05:24:56.826Z,3.4
2017-11-07T05:25:58.791Z,3.4
2017-11-07T05:27:02.212Z,3.4
2017-11-07T05:28:04.215Z,3.4
2017-11-07T05:29:06.360Z,3.4
2017-11-07T05:30:08.216Z,3.4
2017-11-07T05:31:10.076Z,3.5
2017-11-07T05:32:11.954Z,3.5
2017-11-07T05:33:13.895Z,3.5
2017-11-07T05:34:15.858Z,3.3
2017-11-07T05:35:17.783Z,3.4
2017-11-07T05:36:19.661Z,3.4
2017-11-07T05:37:21.872Z,3.4
2017-11-07T05:38:23.841Z,3.4
2017-11-07T05:39:25.782Z,3.2
2017-11-07T05:40:27.691Z,3.4
2017-11-07T05:41:29.494Z,3.4
2017-11-07T05:42:31.337Z,3.4
2017-11-07T05:43:33.316Z,3.4
2017-11-07T05:44:35.556Z,3.4
2017-11-07T05:45:37.488Z,3.5
2017-11-07T05:46:41.831Z,3.3
2017-11-07T05:47:43.780Z,3.3
2017-11-07T05:48:45.755Z,3.3
2017-11-07T05:49:47.719Z,3.4
2017-11-07T05:50:49.627Z,3.4
2017-11-07T05:51:51.769Z,3.5
2017-11-07T05:52:53.708Z,3.6
2017-11-07T05:53:55.609Z,3.4
2017-11-07T05:54:57.556Z,3.3
2017-11-07T05:55:59.452Z,3.4
2017-11-07T05:57:01.356Z,3.4
2017-11-07T05:58:03.250Z,3.5
2017-11-07T05:59:05.213Z,3.4
2017-11-07T06:00:07.052Z,3.6
2017-11-07T06:01:09.065Z,3.7
2017-11-07T06:02:10.913Z,3.8
2017-11-07T06:03:12.790Z,3.5
2017-11-07T06:04:14.845Z,3.7
2017-11-07T06:05:16.794Z,3.7
2017-11-07T06:06:18.649Z,3.6
2017-11-07T06:07:20.531Z,3.6
2017-11-07T06:08:22.424Z,3.7
2017-11-07T06:09:24.454Z,3.7
2017-11-07T06:10:26.327Z,3.7
2017-11-07T06:11:28.237Z,3.7
2017-11-07T06:12:30.097Z,3.7
2017-11-07T06:13:32.014Z,3.7
2017-11-07T06:14:33.880Z,3.8
2017-11-07T06:15:35.880Z,3.7
2017-11-07T06:16:37.813Z,3.8
2017-11-07T06:17:40.336Z,3.8
2017-11-07T06:18:42.635Z,4
2017-11-07T06:19:44.508Z,4
2017-11-07T06:20:46.466Z,3.9
2017-11-07T06:21:48.360Z,3.9
2017-11-07T06:22:50.292Z,4.1
2017-11-07T06:23:52.362Z,4.1
2017-11-07T06:24:54.360Z,4
2017-11-07T06:25:56.291Z,4
2017-11-07T06:26:58.252Z,3.9
2017-11-07T06:28:00.128Z,4
2017-11-07T06:29:02.078Z,4
2017-11-07T06:30:03.997Z,3.9
2017-11-07T06:31:05.960Z,4
2017-11-07T06:32:07.899Z,3.9
2017-11-07T06:33:09.826Z,3.9
2017-11-07T06:34:11.722Z,3.9
2017-11-07T06:35:13.679Z,3.9
2017-11-07T06:36:15.669Z,4
2017-11-07T06:37:17.613Z,4
2017-11-07T06:38:19.592Z,4.1
2017-11-07T06:39:21.448Z,4.1
2017-11-07T06:40:23.393Z,4.2
2017-11-07T06:41:25.345Z,4.2
2017-11-07T06:42:27.480Z,4.2
2017-11-07T06:43:29.420Z,4.3
2017-11-07T06:44:31.350Z,4.3
2017-11-07T06:45:33.223Z,4.3
2017-11-07T06:46:35.120Z,4.1
2017-11-07T06:47:37.399Z,4.2
2017-11-07T06:48:41.547Z,4.2
2017-11-07T06:49:43.472Z,4.3
2017-11-07T06:50:45.599Z,4.3
2017-11-07T06:51:47.514Z,4.4
2017-11-07T06:52:49.409Z,4.4
2017-11-07T06:53:51.368Z,4.5
2017-11-07T06:54:53.255Z,4.4
2017-11-07T06:55:55.226Z,4.6
2017-11-07T06:56:57.113Z,4.5
2017-11-07T06:57:58.980Z,4.5
2017-11-07T06:59:00.934Z,4.5
2017-11-07T07:00:02.831Z,4.5
2017-11-07T07:01:04.803Z,4.4
2017-11-07T07:02:06.743Z,4.5
2017-11-07T07:03:08.670Z,4.5
2017-11-07T07:04:10.572Z,4.6
2017-11-07T07:05:12.473Z,4.6
2017-11-07T07:06:14.458Z,4.6
2017-11-07T07:07:16.346Z,4.6
2017-11-07T07:08:18.266Z,4.7
2017-11-07T07:09:20.198Z,4.7
2017-11-07T07:10:22.152Z,4.8
2017-11-07T07:11:24.119Z,4.6
2017-11-07T07:12:26.069Z,4.5
2017-11-07T07:13:28.020Z,4.3
2017-11-07T07:14:29.973Z,4.3
2017-11-07T07:15:31.977Z,4.2
2017-11-07T07:16:34.209Z,4.3
2017-11-07T07:17:36.814Z,4.3
2017-11-07T07:18:38.789Z,4.3
2017-11-07T07:19:41.771Z,4.4
2017-11-07T07:20:43.612Z,4.4
2017-11-07T07:21:45.505Z,4.3
2017-11-07T07:22:47.447Z,4.4
2017-11-07T07:23:49.459Z,4.3
2017-11-07T07:24:51.415Z,4.4
2017-11-07T07:25:53.541Z,4.4
2017-11-07T07:26:55.540Z,4.5
2017-11-07T07:27:57.563Z,4.4
2017-11-07T07:28:59.465Z,4.4
2017-11-07T07:30:01.465Z,4.3
2017-11-07T07:31:03.359Z,4.4
2017-11-07T07:32:05.312Z,4.5
2017-11-07T07:33:07.231Z,4.4
2017-11-07T07:34:09.178Z,4.4
2017-11-07T07:35:11.106Z,4.4
2017-11-07T07:36:13.025Z,4.5
2017-11-07T07:37:14.957Z,4.6
2017-11-07T07:38:17.046Z,4.5
2017-11-07T07:39:18.964Z,4.6
2017-11-07T07:40:21.040Z,4.6
2017-11-07T07:41:22.975Z,4.7
2017-11-07T07:42:24.917Z,4.6
2017-11-07T07:43:30.738Z,4.7
2017-11-07T07:44:32.795Z,4.7
2017-11-07T07:45:34.851Z,4.8
2017-11-07T07:46:36.708Z,4.9
2017-11-07T07:47:38.692Z,5
2017-11-07T07:48:42.975Z,5
2017-11-07T07:49:44.948Z,5.1
2017-11-07T07:50:46.986Z,5.1
2017-11-07T07:51:48.922Z,5
2017-11-07T07:52:50.870Z,5.3
2017-11-07T07:53:52.837Z,5.4
2017-11-07T07:54:54.732Z,5.2
2017-11-07T07:55:56.845Z,5.1
2017-11-07T07:56:58.781Z,5
2017-11-07T07:58:00.775Z,4.9
2017-11-07T07:59:02.664Z,5
2017-11-07T08:00:04.560Z,4.8
2017-11-07T08:01:06.504Z,4.9
2017-11-07T08:02:08.411Z,5
2017-11-07T08:03:10.435Z,5.2
2017-11-07T08:04:12.427Z,5.1
2017-11-07T08:05:14.355Z,5
2017-11-07T08:06:16.324Z,4.9
2017-11-07T08:07:18.234Z,5
2017-11-07T08:08:20.415Z,5.2
2017-11-07T08:09:22.333Z,5.2
2017-11-07T08:10:24.204Z,5.2
2017-11-07T08:11:26.090Z,5.1
2017-11-07T08:12:28.015Z,5.2
2017-11-07T08:13:29.921Z,5.1
2017-11-07T08:14:31.912Z,5.1
2017-11-07T08:15:34.018Z,5.1
2017-11-07T08:16:36.048Z,5.1
2017-11-07T08:17:37.941Z,5
2017-11-07T08:18:41.851Z,5
2017-11-07T08:19:43.884Z,4.9
2017-11-07T08:20:45.820Z,5
2017-11-07T08:21:47.772Z,5.1
2017-11-07T08:22:49.749Z,5.1
2017-11-07T08:23:51.782Z,5
2017-11-07T08:24:53.690Z,5.1
2017-11-07T08:25:55.752Z,5
2017-11-07T08:26:57.744Z,5
2017-11-07T08:28:01.941Z,5
2017-11-07T08:29:03.833Z,4.9
2017-11-07T08:30:05.774Z,5
2017-11-07T08:31:08.420Z,5
2017-11-07T08:32:10.329Z,4.9
2017-11-07T08:33:12.338Z,4.9
2017-11-07T08:34:14.466Z,5
2017-11-07T08:35:16.427Z,5
2017-11-07T08:36:18.365Z,5
2017-11-07T08:37:20.328Z,5.1
2017-11-07T08:38:22.371Z,5.1
2017-11-07T08:39:24.403Z,5.2
2017-11-07T08:40:26.281Z,5.2
2017-11-07T08:41:28.191Z,5.2
2017-11-07T08:42:30.091Z,5.1
2017-11-07T08:43:32.060Z,5.1
2017-11-07T08:44:34.095Z,5.2
2017-11-07T08:45:36.680Z,5.2
2017-11-07T08:46:38.680Z,5.2
2017-11-07T08:47:42.540Z,5.1
2017-11-07T08:48:44.611Z,5.3
2017-11-07T08:49:46.898Z,5.3
2017-11-07T08:50:48.818Z,5.3
2017-11-07T08:51:50.742Z,5.2
2017-11-07T08:52:52.650Z,5.3
2017-11-07T08:53:54.542Z,5.2
2017-11-07T08:54:56.766Z,5.2
2017-11-07T08:55:58.677Z,5.2
2017-11-07T08:57:02.106Z,5.2
2017-11-07T08:58:04.035Z,5.4
2017-11-07T08:59:06.089Z,5.4
2017-11-07T09:00:08.046Z,5.4
2017-11-07T09:01:09.957Z,5.5
2017-11-07T09:02:11.917Z,5.4
2017-11-07T09:03:13.835Z,5.4
2017-11-07T09:04:15.856Z,5.4
2017-11-07T09:05:17.839Z,5.3
2017-11-07T09:06:19.827Z,5.2
2017-11-07T09:07:21.917Z,5.3
2017-11-07T09:08:23.786Z,5.2
2017-11-07T09:09:25.738Z,5.1
2017-11-07T09:10:27.666Z,5.1
2017-11-07T09:11:29.692Z,5.1
2017-11-07T09:12:31.622Z,5.2
2017-11-07T09:13:33.480Z,5.2
2017-11-07T09:14:35.460Z,5.2
2017-11-07T09:15:37.689Z,5.1
2017-11-07T09:16:41.385Z,5.2
2017-11-07T09:17:43.371Z,5.3
2017-11-07T09:18:45.213Z,5.3
2017-11-07T09:19:47.363Z,5.2
2017-11-07T09:20:49.395Z,5.2
2017-11-07T09:21:51.270Z,5.2
2017-11-07T09:22:53.231Z,5.2
2017-11-07T09:23:55.109Z,5.2
2017-11-07T09:24:56.968Z,5.2
2017-11-07T09:25:58.991Z,5.4
2017-11-07T09:27:01.499Z,5.4
2017-11-07T09:28:03.445Z,5.6
2017-11-07T09:29:05.364Z,5.7
2017-11-07T09:30:07.242Z,5.5
2017-11-07T09:31:09.289Z,5.6
2017-11-07T09:32:11.201Z,5.6
2017-11-07T09:33:13.163Z,5.4
2017-11-07T09:34:15.020Z,5.4
2017-11-07T09:35:16.915Z,5.5
2017-11-07T09:36:18.762Z,5.4
2017-11-07T09:37:20.635Z,5.5
2017-11-07T09:38:22.651Z,5.4
2017-11-07T09:39:24.600Z,5.4
2017-11-07T09:40:26.580Z,5.4
2017-11-07T09:41:28.455Z,5.5
2017-11-07T09:42:30.335Z,5.5
2017-11-07T09:43:32.314Z,5.5
2017-11-07T09:44:34.217Z,5.5
2017-11-07T09:45:36.672Z,5.4
2017-11-07T09:46:39.689Z,5.5
2017-11-07T09:47:43.763Z,5.4
2017-11-07T09:48:45.621Z,5.4
2017-11-07T09:49:47.488Z,5.5
2017-11-07T09:50:49.443Z,5.4
2017-11-07T09:51:51.401Z,5.4
2017-11-07T09:52:53.300Z,5.4
2017-11-07T09:53:55.529Z,5.5
2017-11-07T09:54:57.991Z,5.5
2017-11-07T09:55:59.900Z,5.5
2017-11-07T09:57:02.224Z,5.6
2017-11-07T09:58:06.578Z,5.7
2017-11-07T09:59:08.456Z,5.6
2017-11-07T10:00:10.391Z,5.6
2017-11-07T10:01:12.300Z,5.6
2017-11-07T10:02:14.308Z,5.5
2017-11-07T10:03:16.293Z,5.5
2017-11-07T10:04:18.180Z,5.4
2017-11-07T10:05:20.138Z,5.5
2017-11-07T10:06:22.074Z,5.5
2017-11-07T10:07:24.147Z,5.4
2017-11-07T10:08:26.175Z,5.6
2017-11-07T10:09:28.159Z,5.6
2017-11-07T10:10:30.114Z,5.6
2017-11-07T10:11:32.075Z,5.6
2017-11-07T10:12:34.055Z,5.7
2017-11-07T10:13:35.946Z,5.7
2017-11-07T10:14:37.909Z,5.7
2017-11-07T10:15:41.589Z,5.7
2017-11-07T10:16:43.749Z,5.8
2017-11-07T10:17:45.757Z,5.8
2017-11-07T10:18:47.686Z,5.8
2017-11-07T10:19:49.597Z,5.7
2017-11-07T10:20:51.518Z,5.7
2017-11-07T10:21:53.419Z,5.7
2017-11-07T10:22:55.910Z,5.7
2017-11-07T10:23:57.806Z,5.7
2017-11-07T10:24:59.800Z,5.6
2017-11-07T10:26:02.012Z,5.7
2017-11-07T10:27:03.947Z,5.7
2017-11-07T10:28:06.225Z,5.8
2017-11-07T10:29:08.178Z,5.7
2017-11-07T10:30:10.210Z,5.7
2017-11-07T10:31:12.131Z,5.7
2017-11-07T10:32:14.117Z,5.7
2017-11-07T10:33:16.062Z,5.7
2017-11-07T10:34:18.007Z,5.8
2017-11-07T10:35:19.954Z,5.8
2017-11-07T10:36:21.858Z,5.9
2017-11-07T10:37:23.934Z,6
2017-11-07T10:38:26.442Z,6
2017-11-07T10:39:28.344Z,6
2017-11-07T10:40:30.268Z,6
2017-11-07T10:41:32.224Z,6.1
2017-11-07T10:42:34.097Z,6
2017-11-07T10:43:36.550Z,6.2
2017-11-07T10:44:38.446Z,6.2
2017-11-07T10:45:45.476Z,6.1
2017-11-07T10:46:47.417Z,6.1
2017-11-07T10:47:49.359Z,6.3
2017-11-07T10:48:51.296Z,6.3
2017-11-07T10:49:53.231Z,6.2
2017-11-07T10:50:55.251Z,6.2
2017-11-07T17:17:08.613Z,7.9
2017-11-07T17:18:14.090Z,8
